createdAt,value
2023-07-05T00:02:12.912Z,93.46
2023-07-05T00:04:40.879Z,93.55
2023-07-05T00:07:08.842Z,93.53
2023-07-05T00:09:38.162Z,93.85
2023-07-05T00:12:06.695Z,94.67
2023-07-05T00:14:35.984Z,94.91
2023-07-05T00:17:03.951Z,94.74
2023-07-05T00:19:31.900Z,94.72
2023-07-05T00:21:59.815Z,94.40
2023-07-05T00:24:27.799Z,94.40
2023-07-05T00:26:57.103Z,94.75
2023-07-05T00:29:25.040Z,95.17
2023-07-05T00:31:53.075Z,95.06
2023-07-05T00:34:21.094Z,94.87
2023-07-05T00:36:49.027Z,95.05
2023-07-05T00:39:16.969Z,95.00
2023-07-05T00:41:44.984Z,95.20
2023-07-05T00:44:16.095Z,94.96
2023-07-05T00:46:50.001Z,95.53
2023-07-05T00:49:22.355Z,95.55
2023-07-05T00:51:55.187Z,96.27
2023-07-05T00:54:27.952Z,96.52
2023-07-05T00:56:58.934Z,96.67
2023-07-05T00:59:33.153Z,96.58
2023-07-05T01:02:03.395Z,96.62
2023-07-05T01:04:32.911Z,97.29
2023-07-05T01:07:01.192Z,97.37
2023-07-05T01:09:29.285Z,97.47
2023-07-05T01:12:08.344Z,97.78
2023-07-05T01:14:45.843Z,97.95
2023-07-05T01:17:24.054Z,98.45
2023-07-05T01:20:19.566Z,98.96
2023-07-05T01:23:08.606Z,99.17
2023-07-05T01:26:03.678Z,99.19
2023-07-05T01:28:51.602Z,100.00
2023-07-05T01:31:45.446Z,99.63
2023-07-05T01:34:21.705Z,99.63
2023-07-05T01:36:50.718Z,100.00
2023-07-05T01:39:18.725Z,99.96
2023-07-05T01:41:46.741Z,99.88
2023-07-05T01:44:16.375Z,99.74
2023-07-05T01:46:52.067Z,99.79
2023-07-05T01:49:39.058Z,99.83
2023-07-05T01:52:14.483Z,100.00
2023-07-05T01:54:48.211Z,100.00
2023-07-05T01:57:23.218Z,100.00
2023-07-05T01:59:56.959Z,100.00
2023-07-05T02:02:30.967Z,100.00
2023-07-05T02:05:01.477Z,100.00
2023-07-05T02:07:31.622Z,100.00
2023-07-05T02:09:59.767Z,100.00
2023-07-05T02:12:28.833Z,100.00
2023-07-05T02:14:56.801Z,100.00
2023-07-05T02:17:26.560Z,100.00
2023-07-05T02:19:54.708Z,100.00
2023-07-05T02:22:22.948Z,100.00
2023-07-05T02:24:53.161Z,100.00
2023-07-05T02:27:21.621Z,100.00
2023-07-05T02:29:49.845Z,100.00
2023-07-05T02:32:18.054Z,100.00
2023-07-05T02:34:47.364Z,100.00
2023-07-05T02:37:15.866Z,100.00
2023-07-05T02:39:43.940Z,100.00
2023-07-05T02:42:12.239Z,100.00
2023-07-05T02:44:41.825Z,100.00
2023-07-05T02:47:10.108Z,100.00
2023-07-05T02:49:38.046Z,100.00
2023-07-05T02:52:08.222Z,100.00
2023-07-05T02:54:36.160Z,100.00
2023-07-05T02:57:04.937Z,100.00
2023-07-05T02:59:33.189Z,100.00
2023-07-05T03:02:01.302Z,100.00
2023-07-05T03:04:29.876Z,100.00
2023-07-05T03:06:58.313Z,100.00
2023-07-05T03:09:27.696Z,100.00
2023-07-05T03:11:55.657Z,100.00
2023-07-05T03:14:23.685Z,100.00
2023-07-05T03:16:51.710Z,100.00
2023-07-05T03:19:19.811Z,100.00
2023-07-05T03:21:49.425Z,100.00
2023-07-05T03:24:17.400Z,100.00
2023-07-05T03:26:46.716Z,100.00
2023-07-05T03:29:14.679Z,100.00
2023-07-05T03:31:42.703Z,100.00
2023-07-05T03:34:10.727Z,100.00
2023-07-05T03:36:38.835Z,100.00
2023-07-05T03:39:06.796Z,100.00
2023-07-05T03:41:34.779Z,100.00
2023-07-05T03:44:04.251Z,100.00
2023-07-05T03:46:32.329Z,100.00
2023-07-05T03:49:00.629Z,100.00
2023-07-05T03:51:28.853Z,100.00
2023-07-05T03:53:58.881Z,100.00
2023-07-05T03:56:28.806Z,100.00
2023-07-05T03:59:00.804Z,100.00
2023-07-05T04:01:31.810Z,100.00
2023-07-05T04:04:03.400Z,100.00
2023-07-05T04:06:36.176Z,100.00
2023-07-05T04:09:05.183Z,100.00
2023-07-05T04:11:33.198Z,99.41
2023-07-05T04:14:01.383Z,97.76
2023-07-05T04:16:30.874Z,97.23
2023-07-05T04:18:59.486Z,96.34
2023-07-05T04:21:28.863Z,95.96
2023-07-05T04:23:57.026Z,93.69
2023-07-05T04:26:27.137Z,92.77
2023-07-05T04:28:55.874Z,90.65
2023-07-05T04:31:28.992Z,90.85
2023-07-05T04:33:58.679Z,90.30
2023-07-05T04:36:28.654Z,89.92
2023-07-05T04:38:58.308Z,86.14
2023-07-05T04:41:26.644Z,86.56
2023-07-05T04:43:55.086Z,86.17
2023-07-05T04:46:24.253Z,85.68
2023-07-05T04:48:52.550Z,86.33
2023-07-05T04:51:21.977Z,84.57
2023-07-05T04:53:50.101Z,84.79
2023-07-05T04:56:18.426Z,84.57
2023-07-05T04:58:46.389Z,84.66
2023-07-05T05:01:15.011Z,83.92
2023-07-05T05:03:43.570Z,83.52
2023-07-05T05:06:12.059Z,82.29
2023-07-05T05:08:41.568Z,82.44
2023-07-05T05:11:09.556Z,77.69
2023-07-05T05:13:38.540Z,78.46
2023-07-05T05:16:07.693Z,79.30
2023-07-05T05:18:38.575Z,78.87
2023-07-05T05:21:07.039Z,77.55
2023-07-05T05:23:35.194Z,77.29
2023-07-05T05:26:05.351Z,76.53
2023-07-05T05:28:33.335Z,74.51
2023-07-05T05:31:06.730Z,76.19
2023-07-05T05:33:35.141Z,73.25
2023-07-05T05:36:03.800Z,72.73
2023-07-05T05:38:31.952Z,72.83
2023-07-05T05:41:05.414Z,70.02
2023-07-05T05:43:33.509Z,73.53
2023-07-05T05:46:01.534Z,71.53
2023-07-05T05:48:29.664Z,68.79
2023-07-05T05:50:57.646Z,68.54
2023-07-05T05:53:25.589Z,68.00
2023-07-05T05:55:53.575Z,66.69
2023-07-05T05:58:22.899Z,62.98
2023-07-05T06:00:51.487Z,64.12
2023-07-05T06:03:19.646Z,63.29
2023-07-05T06:05:47.708Z,63.30
2023-07-05T06:08:15.635Z,66.47
2023-07-05T06:10:43.572Z,61.30
2023-07-05T06:13:16.816Z,62.74
2023-07-05T06:15:53.516Z,57.94
2023-07-05T06:18:32.155Z,58.27
2023-07-05T06:21:00.075Z,55.40
2023-07-05T06:23:28.057Z,59.50
2023-07-05T06:25:56.005Z,57.40
2023-07-05T06:28:23.921Z,59.90
2023-07-05T06:30:53.691Z,55.71
2023-07-05T06:33:21.914Z,56.70
2023-07-05T06:35:51.111Z,56.79
2023-07-05T06:38:19.123Z,53.19
2023-07-05T06:40:53.342Z,54.72
2023-07-05T06:43:22.996Z,54.37
2023-07-05T06:45:51.425Z,53.92
2023-07-05T06:48:21.317Z,51.74
2023-07-05T06:50:52.409Z,51.14
2023-07-05T06:53:38.257Z,51.44
2023-07-05T06:56:10.819Z,50.07
2023-07-05T06:58:38.998Z,48.96
2023-07-05T07:01:08.404Z,47.91
2023-07-05T07:03:38.595Z,47.98
2023-07-05T07:06:06.975Z,50.44
2023-07-05T07:08:36.370Z,47.83
2023-07-05T07:11:05.955Z,46.09
2023-07-05T07:13:37.834Z,49.47
2023-07-05T07:16:09.551Z,47.34
2023-07-05T07:18:39.427Z,45.59
2023-07-05T07:21:08.737Z,47.29
2023-07-05T07:23:37.599Z,45.65
2023-07-05T07:26:08.151Z,46.81
2023-07-05T07:28:36.302Z,45.06
2023-07-05T07:31:11.810Z,47.02
2023-07-05T07:33:41.527Z,47.49
2023-07-05T07:36:11.297Z,45.39
2023-07-05T07:38:41.475Z,45.33
2023-07-05T07:41:14.479Z,44.04
2023-07-05T07:43:42.519Z,45.87
2023-07-05T07:46:11.516Z,44.19
2023-07-05T07:48:42.317Z,47.77
2023-07-05T07:51:19.965Z,46.41
2023-07-05T07:53:52.171Z,44.52
2023-07-05T07:56:22.444Z,43.64
2023-07-05T07:58:53.610Z,45.07
2023-07-05T08:01:24.434Z,44.22
2023-07-05T08:03:54.212Z,41.81
2023-07-05T08:06:23.137Z,38.44
2023-07-05T08:08:51.087Z,39.80
2023-07-05T08:11:19.055Z,40.24
2023-07-05T08:13:49.929Z,40.18
2023-07-05T08:16:19.341Z,38.93
2023-07-05T08:18:47.525Z,38.41
2023-07-05T08:21:18.215Z,41.61
2023-07-05T08:23:49.233Z,40.52
2023-07-05T08:26:18.597Z,38.39
2023-07-05T08:28:49.785Z,38.90
2023-07-05T08:31:18.171Z,38.47
2023-07-05T08:33:46.383Z,36.20
2023-07-05T08:36:29.560Z,37.48
2023-07-05T08:38:57.783Z,36.68
2023-07-05T08:41:37.366Z,37.97
2023-07-05T08:44:15.614Z,37.40
2023-07-05T08:46:46.493Z,36.47
2023-07-05T08:49:18.879Z,38.56
2023-07-05T08:51:48.239Z,36.66
2023-07-05T08:54:17.964Z,35.18
2023-07-05T08:56:49.614Z,37.75
2023-07-05T08:59:26.563Z,36.00
2023-07-05T09:01:58.112Z,36.08
2023-07-05T09:04:29.142Z,36.97
2023-07-05T09:07:06.082Z,37.70
2023-07-05T09:09:52.237Z,38.79
2023-07-05T09:12:28.219Z,35.70
2023-07-05T09:15:16.835Z,36.97
2023-07-05T09:17:55.758Z,36.51
2023-07-05T09:20:39.037Z,34.37
2023-07-05T09:23:12.286Z,36.58
2023-07-05T09:25:55.010Z,34.61
2023-07-05T09:28:30.165Z,32.86
2023-07-05T09:31:00.657Z,31.55
2023-07-05T09:33:35.300Z,33.29
2023-07-05T09:36:10.642Z,34.13
2023-07-05T09:38:45.760Z,32.96
2023-07-05T09:41:16.671Z,30.91
2023-07-05T09:43:44.644Z,32.70
2023-07-05T09:46:19.925Z,29.74
2023-07-05T09:48:49.218Z,31.73
2023-07-05T09:51:18.606Z,30.27
2023-07-05T09:53:52.152Z,29.91
2023-07-05T09:56:28.601Z,30.23
2023-07-05T09:59:09.888Z,30.99
2023-07-05T10:01:42.004Z,32.11
2023-07-05T10:04:10.597Z,31.28
2023-07-05T10:06:41.382Z,31.52
2023-07-05T10:09:15.662Z,33.05
2023-07-05T10:11:46.491Z,32.80
2023-07-05T10:14:17.793Z,31.11
2023-07-05T10:16:52.058Z,32.05
2023-07-05T10:19:32.846Z,34.45
2023-07-05T10:22:08.575Z,31.38
2023-07-05T10:24:45.240Z,33.12
2023-07-05T10:27:26.962Z,32.77
2023-07-05T10:30:04.186Z,33.03
2023-07-05T10:32:32.782Z,33.67
2023-07-05T10:35:01.716Z,34.67
2023-07-05T10:37:33.292Z,33.60
2023-07-05T10:40:11.139Z,34.29
2023-07-05T10:42:42.341Z,32.68
2023-07-05T10:45:15.787Z,33.89
2023-07-05T10:47:47.462Z,33.03
2023-07-05T10:50:17.466Z,34.52
2023-07-05T10:52:53.817Z,33.27
2023-07-05T10:55:29.847Z,33.69
2023-07-05T10:58:10.797Z,33.96
2023-07-05T11:00:42.114Z,35.00
2023-07-05T11:03:14.678Z,35.23
2023-07-05T11:05:46.392Z,34.75
2023-07-05T11:08:20.742Z,36.95
2023-07-05T11:10:50.775Z,35.89
2023-07-05T11:13:20.184Z,35.07
2023-07-05T11:15:50.009Z,38.48
2023-07-05T11:18:19.711Z,37.67
2023-07-05T11:20:50.711Z,35.22
2023-07-05T11:23:56.357Z,34.83
2023-07-05T11:26:35.206Z,35.22
2023-07-05T11:29:04.627Z,35.42
2023-07-05T11:32:00.814Z,36.80
2023-07-05T11:34:42.052Z,37.48
2023-07-05T11:37:39.799Z,36.37
2023-07-05T11:40:49.173Z,35.25
2023-07-05T11:43:27.024Z,35.45
2023-07-05T11:45:55.056Z,34.58
2023-07-05T11:48:44.060Z,37.53
2023-07-05T11:51:36.874Z,33.44
2023-07-05T11:54:07.712Z,34.98
2023-07-05T11:56:38.668Z,35.76
2023-07-05T11:59:09.269Z,36.82
2023-07-05T12:01:41.331Z,34.89
2023-07-05T12:04:15.957Z,35.83
2023-07-05T12:06:47.271Z,37.23
2023-07-05T12:09:18.605Z,36.41
2023-07-05T12:11:46.606Z,36.52
2023-07-05T12:14:18.092Z,35.23
2023-07-05T12:16:46.988Z,36.70
2023-07-05T12:19:19.286Z,35.74
2023-07-05T12:21:56.418Z,35.88
2023-07-05T12:24:24.405Z,35.36
2023-07-05T12:26:53.045Z,38.29
2023-07-05T12:29:29.618Z,36.58
2023-07-05T12:32:06.514Z,35.72
2023-07-05T12:34:34.932Z,37.16
2023-07-05T12:37:03.122Z,35.68
2023-07-05T12:39:31.219Z,37.04
2023-07-05T12:42:06.419Z,35.75
2023-07-05T12:44:35.985Z,36.38
2023-07-05T12:47:14.619Z,37.62
2023-07-05T12:49:42.719Z,35.74
2023-07-05T12:52:20.792Z,35.59
2023-07-05T12:54:49.242Z,37.09
2023-07-05T12:57:23.018Z,39.50
2023-07-05T13:00:04.697Z,37.00
2023-07-05T13:02:35.596Z,38.37
2023-07-05T13:05:06.232Z,37.54
2023-07-05T13:07:35.308Z,35.82
2023-07-05T13:10:07.608Z,36.95
2023-07-05T13:12:46.389Z,36.89
2023-07-05T13:15:16.268Z,34.84
2023-07-05T13:17:44.329Z,35.97
2023-07-05T13:20:21.044Z,37.53
2023-07-05T13:22:58.955Z,35.58
2023-07-05T13:25:33.006Z,35.97
2023-07-05T13:28:03.834Z,35.78
2023-07-05T13:30:33.379Z,35.93
2023-07-05T13:33:05.613Z,36.75
2023-07-05T13:35:35.755Z,34.36
2023-07-05T13:38:03.740Z,34.00
2023-07-05T13:40:32.914Z,35.25
2023-07-05T13:43:04.876Z,34.00
2023-07-05T13:45:40.832Z,36.48
2023-07-05T13:48:08.996Z,35.34
2023-07-05T13:50:37.130Z,34.07
2023-07-05T13:53:11.173Z,35.13
2023-07-05T13:55:39.428Z,35.28
2023-07-05T13:58:11.106Z,36.17
2023-07-05T14:00:41.455Z,35.98
2023-07-05T14:03:09.525Z,37.73
2023-07-05T14:05:37.663Z,37.60
2023-07-05T14:08:08.798Z,36.05
2023-07-05T14:10:37.595Z,35.23
2023-07-05T14:13:05.831Z,36.35
2023-07-05T14:15:37.626Z,36.71
2023-07-05T14:18:07.910Z,35.50
2023-07-05T14:20:38.213Z,37.20
2023-07-05T14:23:08.231Z,36.84
2023-07-05T14:25:42.406Z,36.08
2023-07-05T14:28:10.405Z,38.05
2023-07-05T14:30:39.479Z,37.50
2023-07-05T14:33:11.294Z,35.63
2023-07-05T14:35:39.459Z,37.63
2023-07-05T14:38:09.482Z,37.50
2023-07-05T14:40:38.617Z,39.82
2023-07-05T14:43:07.062Z,39.85
2023-07-05T14:45:38.535Z,39.56
2023-07-05T14:48:08.243Z,38.74
2023-07-05T14:50:36.649Z,39.01
2023-07-05T14:53:09.740Z,38.86
2023-07-05T14:55:38.757Z,39.73
2023-07-05T14:58:13.051Z,39.82
2023-07-05T15:00:43.095Z,39.41
2023-07-05T15:03:19.877Z,39.03
2023-07-05T15:05:48.058Z,40.75
2023-07-05T15:08:16.036Z,39.31
2023-07-05T15:10:44.035Z,39.20
2023-07-05T15:13:13.145Z,39.88
2023-07-05T15:15:43.131Z,38.88
2023-07-05T15:18:12.583Z,37.83
2023-07-05T15:20:40.638Z,38.23
2023-07-05T15:23:08.671Z,38.48
2023-07-05T15:25:36.922Z,38.57
2023-07-05T15:28:06.405Z,39.01
2023-07-05T15:30:34.414Z,39.06
2023-07-05T15:33:02.962Z,37.67
2023-07-05T15:35:32.331Z,38.66
2023-07-05T15:38:00.284Z,39.39
2023-07-05T15:40:28.267Z,38.64
2023-07-05T15:42:56.216Z,39.28
2023-07-05T15:45:26.346Z,40.51
2023-07-05T15:47:55.559Z,39.79
2023-07-05T15:50:25.304Z,39.66
2023-07-05T15:52:54.606Z,40.53
2023-07-05T15:55:24.187Z,40.66
2023-07-05T15:57:53.087Z,41.48
2023-07-05T16:00:28.864Z,41.58
2023-07-05T16:03:01.687Z,42.09
2023-07-05T16:05:31.629Z,42.33
2023-07-05T16:08:02.546Z,43.26
2023-07-05T16:10:30.937Z,43.80
2023-07-05T16:13:00.496Z,45.25
2023-07-05T16:15:29.315Z,44.08
2023-07-05T16:18:00.349Z,46.13
2023-07-05T16:20:28.788Z,46.76
2023-07-05T16:22:57.000Z,46.11
2023-07-05T16:25:26.905Z,46.50
2023-07-05T16:27:54.865Z,46.33
2023-07-05T16:30:22.977Z,46.31
2023-07-05T16:32:51.053Z,48.53
2023-07-05T16:35:19.177Z,48.55
2023-07-05T16:37:47.174Z,49.09
2023-07-05T16:40:15.152Z,50.88
2023-07-05T16:42:44.839Z,52.12
2023-07-05T16:45:14.226Z,52.22
2023-07-05T16:47:42.855Z,53.15
2023-07-05T16:50:12.256Z,53.81
2023-07-05T16:52:40.380Z,54.24
2023-07-05T16:55:09.791Z,54.78
2023-07-05T16:57:37.773Z,54.79
2023-07-05T17:00:10.374Z,56.22
2023-07-05T17:02:41.399Z,55.79
2023-07-05T17:05:10.037Z,56.50
2023-07-05T17:07:38.036Z,57.69
2023-07-05T17:10:06.564Z,57.67
2023-07-05T17:12:34.721Z,58.08
2023-07-05T17:15:02.737Z,60.38
2023-07-05T17:17:32.876Z,59.74
2023-07-05T17:20:03.202Z,60.31
2023-07-05T17:22:31.652Z,62.08
2023-07-05T17:24:59.635Z,62.17
2023-07-05T17:27:27.650Z,61.69
2023-07-05T17:29:55.643Z,62.23
2023-07-05T17:32:23.961Z,63.23
2023-07-05T17:34:53.302Z,63.68
2023-07-05T17:37:21.800Z,64.12
2023-07-05T17:39:50.358Z,63.25
2023-07-05T17:42:18.303Z,63.89
2023-07-05T17:44:46.251Z,63.34
2023-07-05T17:47:16.099Z,63.10
2023-07-05T17:49:44.066Z,62.88
2023-07-05T17:52:13.385Z,64.13
2023-07-05T17:54:41.329Z,64.43
2023-07-05T17:57:09.272Z,64.23
2023-07-05T17:59:37.795Z,64.76
2023-07-05T18:02:06.137Z,65.34
2023-07-05T18:04:34.168Z,66.31
2023-07-05T18:07:02.142Z,66.46
2023-07-05T18:09:31.510Z,65.68
2023-07-05T18:11:59.490Z,64.42
2023-07-05T18:14:27.476Z,64.03
2023-07-05T18:16:55.688Z,63.53
2023-07-05T18:19:23.940Z,64.29
2023-07-05T18:21:51.896Z,64.82
2023-07-05T18:24:20.040Z,65.27
2023-07-05T18:26:53.757Z,65.54
2023-07-05T18:29:21.842Z,64.99
2023-07-05T18:31:49.898Z,66.31
2023-07-05T18:34:17.978Z,67.46
2023-07-05T18:36:46.091Z,68.37
2023-07-05T18:39:14.034Z,68.92
2023-07-05T18:41:41.983Z,69.25
2023-07-05T18:44:11.351Z,68.79
2023-07-05T18:46:39.327Z,66.50
2023-07-05T18:49:07.306Z,67.52
2023-07-05T18:51:35.232Z,67.31
2023-07-05T18:54:05.467Z,66.88
2023-07-05T18:56:33.764Z,66.77
2023-07-05T18:59:01.738Z,65.44
2023-07-05T19:01:31.116Z,65.90
2023-07-05T19:03:59.076Z,66.10
2023-07-05T19:06:28.117Z,65.71
2023-07-05T19:08:56.686Z,65.79
2023-07-05T19:11:29.669Z,65.62
2023-07-05T19:13:57.709Z,65.17
2023-07-05T19:16:27.374Z,65.69
2023-07-05T19:18:58.969Z,65.58
2023-07-05T19:21:27.223Z,66.82
2023-07-05T19:23:55.403Z,67.64
2023-07-05T19:26:23.635Z,66.24
2023-07-05T19:28:52.911Z,67.00
2023-07-05T19:31:23.047Z,67.88
2023-07-05T19:33:52.102Z,67.24
2023-07-05T19:36:24.017Z,67.31
2023-07-05T19:38:53.366Z,68.29
2023-07-05T19:41:23.198Z,68.24
2023-07-05T19:43:51.559Z,67.87
2023-07-05T19:46:24.349Z,67.12
2023-07-05T19:48:52.633Z,66.95
2023-07-05T19:51:22.042Z,67.19
2023-07-05T19:53:50.014Z,66.43
2023-07-05T19:56:17.941Z,64.01
2023-07-05T19:58:47.203Z,64.38
2023-07-05T20:01:16.131Z,63.32
2023-07-05T20:03:44.470Z,65.24
2023-07-05T20:06:12.529Z,65.38
2023-07-05T20:08:43.594Z,65.31
2023-07-05T20:11:14.905Z,66.48
2023-07-05T20:13:43.478Z,66.06
2023-07-05T20:16:12.037Z,66.51
2023-07-05T20:18:40.158Z,65.19
2023-07-05T20:21:12.207Z,64.87
2023-07-05T20:23:45.013Z,64.91
2023-07-05T20:26:17.678Z,66.20
2023-07-05T20:28:47.216Z,66.52
2023-07-05T20:31:15.599Z,66.98
2023-07-05T20:33:44.213Z,66.82
2023-07-05T20:36:15.979Z,66.51
2023-07-05T20:38:46.260Z,66.10
2023-07-05T20:41:15.156Z,62.28
2023-07-05T20:43:43.177Z,62.46
2023-07-05T20:46:11.821Z,62.69
2023-07-05T20:48:41.243Z,63.79
2023-07-05T20:51:13.064Z,65.32
2023-07-05T20:53:41.056Z,65.99
2023-07-05T20:56:11.516Z,65.21
2023-07-05T20:58:39.507Z,66.66
2023-07-05T21:01:10.415Z,66.62
2023-07-05T21:03:39.192Z,67.08
2023-07-05T21:06:07.733Z,67.42
2023-07-05T21:08:37.007Z,67.26
2023-07-05T21:11:07.085Z,66.61
2023-07-05T21:13:39.655Z,66.10
2023-07-05T21:16:09.736Z,67.50
2023-07-05T21:18:38.586Z,68.53
2023-07-05T21:21:07.500Z,68.25
2023-07-05T21:23:36.617Z,68.13
2023-07-05T21:26:06.056Z,67.91
2023-07-05T21:28:34.599Z,68.13
2023-07-05T21:31:07.160Z,68.29
2023-07-05T21:33:35.950Z,67.02
2023-07-05T21:36:04.262Z,67.84
2023-07-05T21:38:32.758Z,68.28
2023-07-05T21:41:01.854Z,69.56
2023-07-05T21:43:30.711Z,70.34
2023-07-05T21:45:59.100Z,69.99
2023-07-05T21:48:30.375Z,69.71
2023-07-05T21:50:59.389Z,70.30
2023-07-05T21:53:28.263Z,70.90
2023-07-05T21:55:57.886Z,72.19
2023-07-05T21:58:30.236Z,72.38
2023-07-05T22:00:58.934Z,72.00
2023-07-05T22:03:28.902Z,72.33
2023-07-05T22:05:59.804Z,73.98
2023-07-05T22:08:28.097Z,74.12
2023-07-05T22:10:56.754Z,74.14
2023-07-05T22:13:25.174Z,74.42
2023-07-05T22:15:54.232Z,74.40
2023-07-05T22:18:22.804Z,74.03
2023-07-05T22:20:52.218Z,74.23
2023-07-05T22:23:21.094Z,74.38
2023-07-05T22:25:49.058Z,75.46
2023-07-05T22:28:17.093Z,75.91
2023-07-05T22:30:45.038Z,76.88
2023-07-05T22:33:13.591Z,76.96
2023-07-05T22:35:41.670Z,77.31
2023-07-05T22:38:11.002Z,77.77
2023-07-05T22:40:38.961Z,77.95
2023-07-05T22:43:07.364Z,77.91
2023-07-05T22:45:37.194Z,77.63
2023-07-05T22:48:05.753Z,77.60
2023-07-05T22:50:33.817Z,76.98
2023-07-05T22:53:01.789Z,76.74
2023-07-05T22:55:31.176Z,77.35
2023-07-05T22:57:59.116Z,77.75
2023-07-05T23:00:27.358Z,78.08
2023-07-05T23:02:56.581Z,78.42
2023-07-05T23:05:27.406Z,78.76
2023-07-05T23:07:55.589Z,78.57
2023-07-05T23:10:23.811Z,78.48
2023-07-05T23:12:53.207Z,79.31
2023-07-05T23:15:23.806Z,80.36
2023-07-05T23:17:53.928Z,80.50
2023-07-05T23:20:23.299Z,80.69
2023-07-05T23:22:51.826Z,81.34
2023-07-05T23:25:19.768Z,82.04
2023-07-05T23:27:47.725Z,82.25
2023-07-05T23:30:17.236Z,82.22
2023-07-05T23:32:45.230Z,82.11
2023-07-05T23:35:15.031Z,82.68
2023-07-05T23:37:42.960Z,83.08
2023-07-05T23:40:13.716Z,83.19
2023-07-05T23:42:42.901Z,83.61
2023-07-05T23:45:12.762Z,83.01
2023-07-05T23:47:42.242Z,83.08
2023-07-05T23:50:12.877Z,83.82
2023-07-05T23:52:41.809Z,84.17
2023-07-05T23:55:10.584Z,84.04
2023-07-05T23:57:39.298Z,84.08
